Time;durP1;ratioP1;P1;durP2;ratioP2;P2;SDS_P1;SDS_P2;PMS_P1;PMS_P2;Temp;Humidity;BMP_temperature;BMP_pressure;BME280_temperature;BME280_humidity;BME280_pressure;Samples;Min_cycle;Max_cycle;Signal;HPM_P1;HPM_P2
2023/02/02 00:01:32;;;;;;;21.23;14.68;;;;;;;;;;5045659;28;20385;-59
2023/02/02 00:03:58;;;;;;;20.63;13.40;;;;;;;;;;5052637;28;20017;-61
2023/02/02 00:06:25;;;;;;;20.75;13.25;;;;;;;;;;5052934;28;20025;-58
2023/02/02 00:08:51;;;;;;;17.65;13.63;;;;;;;;;;5052629;28;20435;-59
2023/02/02 00:11:18;;;;;;;19.88;14.07;;;;;;;;;;5052366;28;20371;-59
2023/02/02 00:13:44;;;;;;;19.70;13.55;;;;;;;;;;5052537;28;20022;-61
2023/02/02 00:16:21;;;;;;;26.85;13.80;;;;;;;;;;5052203;28;20028;-61
2023/02/02 00:18:48;;;;;;;20.63;14.10;;;;;;;;;;5052256;28;20025;-63
2023/02/02 00:21:14;;;;;;;19.95;12.32;;;;;;;;;;5052274;28;20021;-61
2023/02/02 00:23:40;;;;;;;19.63;12.77;;;;;;;;;;5052018;28;20393;-61
2023/02/02 00:26:06;;;;;;;18.70;11.68;;;;;;;;;;5052212;28;20075;-59
2023/02/02 00:28:32;;;;;;;18.35;11.77;;;;;;;;;;5052148;28;20033;-60
2023/02/02 00:30:58;;;;;;;19.10;11.60;;;;;;;;;;5050538;28;20110;-60
2023/02/02 00:33:23;;;;;;;17.67;11.43;;;;;;;;;;5052261;28;20049;-59
2023/02/02 00:35:52;;;;;;;16.70;10.93;;;;;;;;;;4447550;28;10001646;-61
2023/02/02 00:38:19;;;;;;;17.13;10.43;;;;;;;;;;5045948;28;20036;-61
2023/02/02 00:40:45;;;;;;;21.67;11.82;;;;;;;;;;5031235;28;20018;-62
2023/02/02 00:43:11;;;;;;;21.95;10.30;;;;;;;;;;5029150;28;20021;-62
2023/02/02 00:45:37;;;;;;;21.40;10.55;;;;;;;;;;5031154;28;20076;-61
2023/02/02 00:48:03;;;;;;;21.38;10.93;;;;;;;;;;5031370;28;20060;-61
2023/02/02 00:50:30;;;;;;;16.25;9.65;;;;;;;;;;5032555;28;20034;-62
2023/02/02 00:52:57;;;;;;;18.30;9.73;;;;;;;;;;5031082;28;20034;-61
2023/02/02 00:55:24;;;;;;;16.77;9.80;;;;;;;;;;5032317;28;20052;-60
2023/02/02 00:57:50;;;;;;;17.85;9.68;;;;;;;;;;5032527;28;20048;-61
2023/02/02 01:00:22;;;;;;;18.05;10.25;;;;;;;;;;5032803;28;20021;-60
2023/02/02 01:02:48;;;;;;;18.25;10.82;;;;;;;;;;5032690;28;20018;-59
2023/02/02 01:05:14;;;;;;;20.65;10.20;;;;;;;;;;5032464;28;20159;-58
2023/02/02 01:07:40;;;;;;;19.73;10.95;;;;;;;;;;5031441;28;20098;-61
2023/02/02 01:10:08;;;;;;;18.35;10.98;;;;;;;;;;5032539;28;20033;-60
2023/02/02 01:12:34;;;;;;;16.70;10.40;;;;;;;;;;5048560;28;20025;-61
2023/02/02 01:15:01;;;;;;;23.02;11.50;;;;;;;;;;5052232;28;20095;-61
2023/02/02 01:17:27;;;;;;;18.45;11.20;;;;;;;;;;5052258;28;20485;-61
2023/02/02 01:19:53;;;;;;;20.23;11.35;;;;;;;;;;5051132;28;20103;-61
2023/02/02 01:22:19;;;;;;;21.70;11.32;;;;;;;;;;5052236;28;20131;-62
2023/02/02 01:24:45;;;;;;;21.20;11.38;;;;;;;;;;5050697;28;20079;-61
2023/02/02 01:27:11;;;;;;;18.27;11.35;;;;;;;;;;5052204;28;20029;-62
2023/02/02 01:29:37;;;;;;;17.58;12.30;;;;;;;;;;5052291;28;20059;-61
2023/02/02 01:32:03;;;;;;;23.05;11.73;;;;;;;;;;5052135;28;20068;-61
2023/02/02 01:34:29;;;;;;;22.17;11.68;;;;;;;;;;5050563;28;20032;-57
2023/02/02 01:36:55;;;;;;;19.73;11.88;;;;;;;;;;5052063;28;20024;-60
2023/02/02 01:39:21;;;;;;;19.88;11.45;;;;;;;;;;5051973;28;20021;-60
2023/02/02 01:41:46;;;;;;;17.88;11.60;;;;;;;;;;5051937;28;20021;-59
2023/02/02 01:44:31;;;;;;;18.95;12.05;;;;;;;;;;5050599;28;20021;-61
2023/02/02 01:46:57;;;;;;;22.05;12.32;;;;;;;;;;5050882;28;20032;-59
2023/02/02 01:49:23;;;;;;;18.80;12.52;;;;;;;;;;5051940;28;20029;-60
2023/02/02 01:51:49;;;;;;;22.50;13.35;;;;;;;;;;5051564;28;20033;-60
2023/02/02 01:54:18;;;;;;;20.98;12.75;;;;;;;;;;5050257;28;20078;-61
2023/02/02 01:56:46;;;;;;;27.15;13.88;;;;;;;;;;5051840;28;20104;-60
2023/02/02 01:59:14;;;;;;;23.48;13.40;;;;;;;;;;5050667;28;20025;-59
2023/02/02 02:01:40;;;;;;;24.23;12.70;;;;;;;;;;5051826;28;20044;-61
2023/02/02 02:04:06;;;;;;;21.80;12.60;;;;;;;;;;5051684;28;20020;-57
2023/02/02 02:06:32;;;;;;;18.55;12.88;;;;;;;;;;5051570;28;20477;-59
2023/02/02 02:09:02;;;;;;;24.90;12.80;;;;;;;;;;5051803;28;20040;-63
2023/02/02 02:11:28;;;;;;;19.25;12.70;;;;;;;;;;5051585;28;20045;-59
2023/02/02 02:16:40;;;;;;;32.53;15.40;;;;;;;;;;5051478;28;20047;-59
2023/02/02 02:19:15;;;;;;;25.05;13.57;;;;;;;;;;5051598;28;20096;-61
2023/02/02 02:27:49;;;;;;;28.52;14.75;;;;;;;;;;5051535;28;20044;-60
2023/02/02 02:30:27;;;;;;;25.15;14.50;;;;;;;;;;5051488;28;20066;-60
2023/02/02 02:33:06;;;;;;;24.60;13.82;;;;;;;;;;5051209;28;20027;-62
2023/02/02 02:35:35;;;;;;;21.52;13.57;;;;;;;;;;5051418;28;20029;-60
2023/02/02 02:38:08;;;;;;;31.20;16.25;;;;;;;;;;5051252;28;20481;-61
2023/02/02 02:40:39;;;;;;;25.10;13.52;;;;;;;;;;5051432;28;20377;-59
2023/02/02 02:43:08;;;;;;;24.95;12.95;;;;;;;;;;5050977;28;20051;-61
2023/02/02 02:45:36;;;;;;;23.63;13.43;;;;;;;;;;5051260;28;20486;-62
2023/02/02 02:48:02;;;;;;;22.10;13.20;;;;;;;;;;5051101;28;20037;-59
2023/02/02 02:50:28;;;;;;;20.48;13.43;;;;;;;;;;5051200;28;20833;-62
2023/02/02 02:53:15;;;;;;;26.05;14.43;;;;;;;;;;5051114;28;20096;-61
2023/02/02 02:55:46;;;;;;;29.13;15.02;;;;;;;;;;5050083;28;20025;-57
2023/02/02 02:58:16;;;;;;;24.73;14.07;;;;;;;;;;5051216;28;20059;-60
2023/02/02 03:00:47;;;;;;;24.90;13.80;;;;;;;;;;5051175;28;20021;-59
2023/02/02 03:03:21;;;;;;;24.15;13.77;;;;;;;;;;5049795;28;20108;-58
2023/02/02 03:05:53;;;;;;;23.83;13.85;;;;;;;;;;5054915;28;20035;-59
2023/02/02 03:08:22;;;;;;;28.50;14.43;;;;;;;;;;5054763;28;20029;-59
2023/02/02 03:10:48;;;;;;;23.02;13.15;;;;;;;;;;5054703;28;20123;-59
2023/02/02 03:13:15;;;;;;;23.92;13.60;;;;;;;;;;5054337;28;20029;-59
2023/02/02 03:15:42;;;;;;;30.00;14.10;;;;;;;;;;5053534;28;20021;-60
2023/02/02 03:18:08;;;;;;;23.17;13.68;;;;;;;;;;5053579;28;20040;-60
2023/02/02 03:20:34;;;;;;;29.50;15.27;;;;;;;;;;5054092;28;20024;-61
2023/02/02 03:23:00;;;;;;;25.05;13.43;;;;;;;;;;5054629;28;20025;-59
2023/02/02 03:25:26;;;;;;;20.50;13.43;;;;;;;;;;5053452;28;20040;-58
2023/02/02 03:27:52;;;;;;;24.95;14.45;;;;;;;;;;5053264;28;20469;-59
2023/02/02 03:30:19;;;;;;;25.80;13.88;;;;;;;;;;5054491;28;20033;-60
2023/02/02 03:32:46;;;;;;;41.60;15.95;;;;;;;;;;5054299;28;20032;-61
2023/02/02 03:35:12;;;;;;;25.90;14.10;;;;;;;;;;5054103;28;20029;-60
2023/02/02 03:37:38;;;;;;;25.90;14.45;;;;;;;;;;5054321;28;20072;-61
2023/02/02 03:40:05;;;;;;;21.77;13.68;;;;;;;;;;5054341;28;20028;-61
2023/02/02 03:42:31;;;;;;;26.63;14.15;;;;;;;;;;5054318;28;20660;-61
2023/02/02 03:44:57;;;;;;;22.35;13.65;;;;;;;;;;5053922;28;20032;-60
2023/02/02 03:47:23;;;;;;;25.48;14.52;;;;;;;;;;5054076;28;20076;-61
2023/02/02 03:49:49;;;;;;;27.40;14.52;;;;;;;;;;5052897;28;20071;-61
2023/02/02 03:52:15;;;;;;;24.90;13.70;;;;;;;;;;5054076;28;20052;-61
2023/02/02 03:54:41;;;;;;;28.58;14.73;;;;;;;;;;5053902;28;20493;-61
2023/02/02 03:57:06;;;;;;;21.73;14.15;;;;;;;;;;5052687;28;20052;-60
2023/02/02 03:59:32;;;;;;;22.10;13.45;;;;;;;;;;5053967;28;20596;-60
2023/02/02 04:01:58;;;;;;;26.95;13.60;;;;;;;;;;5052573;28;20052;-61
2023/02/02 04:04:24;;;;;;;23.80;15.25;;;;;;;;;;5053614;28;20488;-61
2023/02/02 04:06:50;;;;;;;27.20;14.27;;;;;;;;;;5053668;28;20033;-61
2023/02/02 04:09:16;;;;;;;21.73;15.35;;;;;;;;;;5053739;28;20029;-62
2023/02/02 04:11:42;;;;;;;32.03;16.90;;;;;;;;;;5053701;28;20021;-62
2023/02/02 04:14:09;;;;;;;33.80;17.15;;;;;;;;;;5053298;28;20021;-61
2023/02/02 04:16:36;;;;;;;28.55;20.50;;;;;;;;;;5053413;28;20029;-61
2023/02/02 04:19:03;;;;;;;28.63;20.25;;;;;;;;;;5052327;28;20115;-59
2023/02/02 04:21:28;;;;;;;27.02;20.77;;;;;;;;;;5053578;28;20097;-61
2023/02/02 04:23:55;;;;;;;29.70;23.65;;;;;;;;;;5053306;28;20060;-61
2023/02/02 04:26:24;;;;;;;35.78;27.83;;;;;;;;;;5052083;28;20025;-61
2023/02/02 04:28:50;;;;;;;;;;;;;;;;;;5050612;28;20021;-62
2023/02/02 04:31:16;;;;;;;32.83;29.35;;;;;;;;;;5052960;28;19909;-62
2023/02/02 04:33:42;;;;;;;35.90;32.13;;;;;;;;;;5052947;28;20022;-60
2023/02/02 04:36:09;;;;;;;39.88;35.80;;;;;;;;;;5052848;28;20029;-61
2023/02/02 04:38:35;;;;;;;38.90;33.65;;;;;;;;;;5052638;28;20056;-61
2023/02/02 04:41:06;;;;;;;36.30;32.92;;;;;;;;;;5053022;28;20477;-62
2023/02/02 04:43:33;;;;;;;37.17;33.35;;;;;;;;;;5052588;28;20048;-59
2023/02/02 04:45:59;;;;;;;38.00;34.50;;;;;;;;;;5052873;28;20028;-61
2023/02/02 04:48:25;;;;;;;39.58;35.50;;;;;;;;;;5052947;28;20481;-61
2023/02/02 04:50:51;;;;;;;34.75;31.33;;;;;;;;;;5052713;28;20040;-61
2023/02/02 04:53:17;;;;;;;35.10;31.92;;;;;;;;;;5050992;28;20859;-60
2023/02/02 04:55:43;;;;;;;34.90;32.00;;;;;;;;;;5052813;28;20033;-61
2023/02/02 04:58:09;;;;;;;34.55;31.60;;;;;;;;;;5052674;28;20021;-61
2023/02/02 05:00:35;;;;;;;36.22;33.15;;;;;;;;;;5052656;28;20067;-61
2023/02/02 05:03:01;;;;;;;35.83;32.88;;;;;;;;;;5051011;28;20021;-60
2023/02/02 05:05:27;;;;;;;36.47;33.40;;;;;;;;;;5052369;28;20025;-60
2023/02/02 05:07:52;;;;;;;42.50;39.03;;;;;;;;;;5052261;28;20453;-60
2023/02/02 05:10:18;;;;;;;38.80;35.45;;;;;;;;;;5050862;28;20025;-61
2023/02/02 05:12:44;;;;;;;39.50;36.20;;;;;;;;;;5051957;28;20501;-60
2023/02/02 05:15:10;;;;;;;39.40;36.20;;;;;;;;;;5051747;28;20143;-62
2023/02/02 05:17:36;;;;;;;42.05;38.50;;;;;;;;;;5050595;28;20059;-59
2023/02/02 05:20:03;;;;;;;45.38;41.55;;;;;;;;;;5052056;28;20025;-60
2023/02/02 05:22:29;;;;;;;45.88;42.17;;;;;;;;;;5051932;28;20483;-61
2023/02/02 05:24:55;;;;;;;47.33;43.17;;;;;;;;;;5051773;28;20096;-60
2023/02/02 05:27:21;;;;;;;46.15;42.08;;;;;;;;;;5050328;28;20025;-60
2023/02/02 05:29:47;;;;;;;48.10;43.65;;;;;;;;;;5050519;28;20474;-60
2023/02/02 05:32:13;;;;;;;48.22;44.25;;;;;;;;;;5050442;28;20032;-61
2023/02/02 05:34:39;;;;;;;49.13;45.13;;;;;;;;;;5051340;28;20060;-61
2023/02/02 05:37:05;;;;;;;47.00;42.92;;;;;;;;;;5051593;28;20493;-59
2023/02/02 05:39:31;;;;;;;48.03;43.90;;;;;;;;;;5051838;28;20025;-60
2023/02/02 05:41:57;;;;;;;46.92;43.00;;;;;;;;;;5051705;28;20032;-60
2023/02/02 05:44:23;;;;;;;46.92;42.92;;;;;;;;;;5050469;28;20025;-60
2023/02/02 05:46:49;;;;;;;47.00;43.05;;;;;;;;;;5051699;28;20029;-59
2023/02/02 05:49:15;;;;;;;50.35;46.17;;;;;;;;;;5051916;28;20104;-60
2023/02/02 05:51:43;;;;;;;48.40;44.28;;;;;;;;;;5050894;28;20089;-60
2023/02/02 05:54:09;;;;;;;48.00;44.17;;;;;;;;;;5051906;28;20076;-56
2023/02/02 05:56:35;;;;;;;49.22;44.92;;;;;;;;;;5051835;28;20064;-60
2023/02/02 05:59:03;;;;;;;49.47;45.13;;;;;;;;;;5052269;28;20017;-59
2023/02/02 06:01:29;;;;;;;47.90;43.75;;;;;;;;;;5051699;28;20025;-59
2023/02/02 06:03:55;;;;;;;48.85;44.85;;;;;;;;;;5051438;28;20066;-59
2023/02/02 06:06:21;;;;;;;47.50;43.60;;;;;;;;;;5050351;28;20120;-60
2023/02/02 06:08:47;;;;;;;49.22;45.10;;;;;;;;;;5051448;28;20029;-58
2023/02/02 06:11:14;;;;;;;48.38;44.42;;;;;;;;;;5051325;28;20029;-61
2023/02/02 06:13:40;;;;;;;48.78;44.67;;;;;;;;;;5051011;28;20103;-58
2023/02/02 06:16:07;;;;;;;48.85;44.63;;;;;;;;;;5051423;28;20040;-59
2023/02/02 06:18:33;;;;;;;48.40;44.50;;;;;;;;;;5049596;28;20039;-59
2023/02/02 06:21:00;;;;;;;48.75;44.67;;;;;;;;;;5050031;28;20021;-58
2023/02/02 06:23:26;;;;;;;48.50;44.47;;;;;;;;;;5049218;28;20021;-59
2023/02/02 06:25:52;;;;;;;47.72;43.72;;;;;;;;;;5050549;28;20032;-58
2023/02/02 06:28:18;;;;;;;47.65;43.75;;;;;;;;;;5051017;28;20081;-57
2023/02/02 06:30:44;;;;;;;46.95;43.03;;;;;;;;;;5050482;28;20417;-59
2023/02/02 06:33:11;;;;;;;48.80;44.80;;;;;;;;;;5050307;28;20500;-57
2023/02/02 06:35:36;;;;;;;50.25;45.88;;;;;;;;;;5050834;28;20037;-56
2023/02/02 06:38:02;;;;;;;49.30;45.08;;;;;;;;;;5050216;28;20029;-59
2023/02/02 06:40:29;;;;;;;48.63;44.42;;;;;;;;;;5082876;22;20083;-64
2023/02/02 06:42:59;;;;;;;50.78;46.33;;;;;;;;;;5073903;28;20037;-61
2023/02/02 06:45:26;;;;;;;50.55;46.25;;;;;;;;;;5074508;28;20021;-61
2023/02/02 06:47:52;;;;;;;50.22;45.83;;;;;;;;;;5073332;28;20194;-62
2023/02/02 06:50:18;;;;;;;49.08;44.65;;;;;;;;;;5073224;28;20028;-61
2023/02/02 06:52:51;;;;;;;50.05;45.88;;;;;;;;;;5073272;28;20033;-63
2023/02/02 06:55:17;;;;;;;50.88;46.53;;;;;;;;;;5073885;28;20025;-61
2023/02/02 06:57:43;;;;;;;52.28;47.78;;;;;;;;;;5073222;28;20052;-59
2023/02/02 07:00:10;;;;;;;54.47;49.80;;;;;;;;;;5073095;28;20546;-60
2023/02/02 07:02:36;;;;;;;51.95;47.53;;;;;;;;;;5074163;28;20035;-60
2023/02/02 07:05:02;;;;;;;53.00;48.50;;;;;;;;;;5072206;28;20028;-62
2023/02/02 07:07:31;;;;;;;52.10;47.40;;;;;;;;;;5064949;28;20034;-63
2023/02/02 07:09:57;;;;;;;54.42;49.63;;;;;;;;;;5061158;28;20099;-62
2023/02/02 07:12:23;;;;;;;53.00;48.38;;;;;;;;;;5074205;28;20049;-61
2023/02/02 07:14:50;;;;;;;52.17;47.63;;;;;;;;;;5061466;28;20029;-61
2023/02/02 07:17:16;;;;;;;52.50;48.25;;;;;;;;;;5052096;28;20439;-60
2023/02/02 07:19:42;;;;;;;52.95;48.45;;;;;;;;;;5055375;28;20017;-60
2023/02/02 07:22:08;;;;;;;52.80;48.10;;;;;;;;;;5058393;28;20025;-62
2023/02/02 07:24:34;;;;;;;53.17;48.88;;;;;;;;;;5074102;28;20469;-61
2023/02/02 07:27:00;;;;;;;56.47;51.85;;;;;;;;;;5073792;28;20060;-61
2023/02/02 07:29:26;;;;;;;54.47;50.17;;;;;;;;;;5073893;28;20469;-63
2023/02/02 07:31:52;;;;;;;54.35;50.15;;;;;;;;;;5073744;28;20029;-63
2023/02/02 07:34:18;;;;;;;53.63;49.35;;;;;;;;;;5073316;28;20039;-60
2023/02/02 07:36:44;;;;;;;54.60;50.42;;;;;;;;;;5073134;28;20056;-63
2023/02/02 07:39:11;;;;;;;51.90;47.78;;;;;;;;;;5070582;28;20044;-63
2023/02/02 07:41:37;;;;;;;56.00;51.38;;;;;;;;;;5051827;28;20141;-59
2023/02/02 07:44:04;;;;;;;53.45;48.92;;;;;;;;;;5051856;28;20500;-58
2023/02/02 07:46:30;;;;;;;53.72;49.28;;;;;;;;;;5052973;28;20025;-61
2023/02/02 07:48:56;;;;;;;53.47;49.25;;;;;;;;;;5053059;28;20025;-61
2023/02/02 07:51:23;;;;;;;53.65;49.22;;;;;;;;;;5051881;28;20021;-63
2023/02/02 07:53:50;;;;;;;56.65;52.28;;;;;;;;;;5051503;28;20020;-60
2023/02/02 07:56:16;;;;;;;55.00;50.50;;;;;;;;;;5053076;28;20102;-62
2023/02/02 07:58:42;;;;;;;54.05;49.97;;;;;;;;;;5052097;28;20660;-62
2023/02/02 08:01:10;;;;;;;58.72;54.05;;;;;;;;;;5053178;28;20485;-63
2023/02/02 08:03:36;;;;;;;58.17;53.60;;;;;;;;;;5051819;28;20025;-60
2023/02/02 08:06:08;;;;;;;61.15;56.38;;;;;;;;;;5053471;28;20071;-63
2023/02/02 08:08:34;;;;;;;60.38;55.90;;;;;;;;;;5052987;28;20033;-64
2023/02/02 08:11:00;;;;;;;61.50;57.03;;;;;;;;;;5051837;28;20028;-62
2023/02/02 08:13:26;;;;;;;61.55;56.53;;;;;;;;;;5051852;28;20033;-62
2023/02/02 08:15:52;;;;;;;60.30;55.58;;;;;;;;;;5051934;28;20457;-62
2023/02/02 08:18:18;;;;;;;61.45;55.65;;;;;;;;;;5053163;28;20067;-63
2023/02/02 08:20:44;;;;;;;59.42;54.42;;;;;;;;;;5053123;28;20388;-63
2023/02/02 08:23:14;;;;;;;58.80;53.97;;;;;;;;;;5051819;28;20112;-64
2023/02/02 08:25:40;;;;;;;58.22;53.60;;;;;;;;;;5052118;28;20446;-64
2023/02/02 08:28:06;;;;;;;57.15;52.47;;;;;;;;;;5053297;28;20033;-63
2023/02/02 08:30:33;;;;;;;56.53;52.17;;;;;;;;;;5052766;28;20067;-63
2023/02/02 08:32:59;;;;;;;54.40;50.08;;;;;;;;;;5051836;28;20120;-63
2023/02/02 08:35:25;;;;;;;52.20;48.13;;;;;;;;;;5052843;28;20086;-62
2023/02/02 08:37:52;;;;;;;52.50;48.15;;;;;;;;;;5052798;28;20060;-63
2023/02/02 08:40:18;;;;;;;53.08;49.15;;;;;;;;;;5053499;28;20037;-63
2023/02/02 08:42:46;;;;;;;52.25;47.95;;;;;;;;;;5073081;28;20020;-63
2023/02/02 08:45:12;;;;;;;49.63;45.88;;;;;;;;;;5072603;28;20477;-63
2023/02/02 08:47:39;;;;;;;49.00;44.90;;;;;;;;;;5071347;28;20055;-62
2023/02/02 08:50:05;;;;;;;48.17;44.33;;;;;;;;;;5073342;28;20021;-59
2023/02/02 08:52:31;;;;;;;49.58;45.33;;;;;;;;;;5073339;28;20036;-59
2023/02/02 08:54:57;;;;;;;47.30;43.80;;;;;;;;;;5071926;28;20025;-63
2023/02/02 08:57:23;;;;;;;47.83;43.75;;;;;;;;;;5071285;28;20028;-63
2023/02/02 08:59:49;;;;;;;46.42;42.72;;;;;;;;;;5071701;28;20025;-61
2023/02/02 09:02:16;;;;;;;45.60;42.25;;;;;;;;;;5071894;28;20070;-64
2023/02/02 09:04:44;;;;;;;46.78;42.88;;;;;;;;;;5071358;28;20032;-63
2023/02/02 09:07:10;;;;;;;45.17;41.67;;;;;;;;;;5072800;28;20100;-63
2023/02/02 09:09:36;;;;;;;47.72;44.08;;;;;;;;;;5072874;28;20098;-63
2023/02/02 09:12:02;;;;;;;45.38;41.75;;;;;;;;;;5072744;28;20028;-62
2023/02/02 09:14:28;;;;;;;47.88;44.08;;;;;;;;;;5073205;28;20488;-64
2023/02/02 09:16:54;;;;;;;44.05;40.45;;;;;;;;;;5072724;28;20438;-61
2023/02/02 09:19:20;;;;;;;44.33;40.78;;;;;;;;;;5072744;28;20020;-64
2023/02/02 09:21:48;;;;;;;45.80;41.92;;;;;;;;;;5072225;28;20388;-61
2023/02/02 09:24:14;;;;;;;46.13;42.13;;;;;;;;;;5070438;28;20055;-62
2023/02/02 09:26:41;;;;;;;46.85;43.05;;;;;;;;;;5070076;28;20032;-64
2023/02/02 09:29:10;;;;;;;46.97;43.33;;;;;;;;;;5071896;28;20029;-64
2023/02/02 09:31:37;;;;;;;47.25;43.65;;;;;;;;;;5072584;28;20023;-66
2023/02/02 09:34:03;;;;;;;47.35;43.45;;;;;;;;;;5070641;28;20389;-65
2023/02/02 09:36:30;;;;;;;48.05;44.05;;;;;;;;;;5072222;28;20021;-62
2023/02/02 09:38:56;;;;;;;47.38;43.47;;;;;;;;;;5071251;28;20030;-64
2023/02/02 09:41:28;;;;;;;49.10;44.97;;;;;;;;;;5071880;28;20029;-63
2023/02/02 09:44:13;;;;;;;48.33;44.70;;;;;;;;;;5070933;28;20020;-64
2023/02/02 09:46:45;;;;;;;48.40;44.70;;;;;;;;;;5072332;28;20025;-63
2023/02/02 09:49:13;;;;;;;48.88;45.17;;;;;;;;;;5070411;28;20453;-64
2023/02/02 09:51:41;;;;;;;49.33;45.72;;;;;;;;;;5071740;28;20045;-64
2023/02/02 09:54:13;;;;;;;49.50;45.53;;;;;;;;;;5070477;28;20101;-65
2023/02/02 09:56:44;;;;;;;47.65;44.13;;;;;;;;;;5070440;28;20049;-65
2023/02/02 09:59:14;;;;;;;48.75;45.00;;;;;;;;;;5071826;28;20024;-65
2023/02/02 10:01:43;;;;;;;49.03;44.92;;;;;;;;;;5070449;28;20530;-64
2023/02/02 10:04:22;;;;;;;48.08;44.17;;;;;;;;;;5070235;28;20052;-64
2023/02/02 10:06:53;;;;;;;46.53;42.92;;;;;;;;;;5071463;28;20029;-64
2023/02/02 10:09:31;;;;;;;47.40;43.70;;;;;;;;;;5070978;28;20024;-64
2023/02/02 10:12:16;;;;;;;48.20;44.08;;;;;;;;;;5070141;28;20116;-64
2023/02/02 10:14:47;;;;;;;46.75;43.15;;;;;;;;;;5071366;28;20021;-64
2023/02/02 10:17:22;;;;;;;47.08;43.38;;;;;;;;;;5070443;28;20119;-62
2023/02/02 10:19:50;;;;;;;46.97;42.97;;;;;;;;;;5071804;28;20100;-63
2023/02/02 10:22:19;;;;;;;46.53;42.65;;;;;;;;;;5070230;28;20052;-63
2023/02/02 10:24:45;;;;;;;47.08;43.47;;;;;;;;;;5069512;28;20027;-64
2023/02/02 10:27:16;;;;;;;46.60;42.83;;;;;;;;;;5071514;28;20021;-61
2023/02/02 10:29:51;;;;;;;47.38;43.45;;;;;;;;;;5069891;28;20078;-62
2023/02/02 10:32:21;;;;;;;46.88;43.20;;;;;;;;;;5071589;28;20025;-64
2023/02/02 10:34:53;;;;;;;47.58;43.67;;;;;;;;;;5071140;28;20025;-63
2023/02/02 10:37:27;;;;;;;46.80;42.97;;;;;;;;;;5071413;28;20024;-69
2023/02/02 10:39:53;;;;;;;48.53;44.58;;;;;;;;;;5067479;28;20024;-64
2023/02/02 10:42:19;;;;;;;48.17;44.28;;;;;;;;;;5049895;28;20058;-62
2023/02/02 10:44:58;;;;;;;48.00;44.38;;;;;;;;;;5061552;28;20021;-65
2023/02/02 10:47:29;;;;;;;48.15;44.50;;;;;;;;;;5055510;28;20029;-65
2023/02/02 10:50:02;;;;;;;49.30;45.15;;;;;;;;;;5049629;28;20092;-66
2023/02/02 10:52:33;;;;;;;47.97;44.25;;;;;;;;;;5051279;28;20107;-66
2023/02/02 10:55:07;;;;;;;48.47;44.75;;;;;;;;;;5050160;28;20028;-66
2023/02/02 10:57:51;;;;;;;48.63;44.85;;;;;;;;;;5051281;28;20151;-64
2023/02/02 11:00:20;;;;;;;47.65;43.75;;;;;;;;;;5049765;28;20044;-65
2023/02/02 11:02:49;;;;;;;47.92;44.05;;;;;;;;;;5046526;28;20055;-65
2023/02/02 11:08:11;;;;;;;48.88;44.90;;;;;;;;;;5051749;28;20056;-64
2023/02/02 11:10:37;;;;;;;47.83;44.15;;;;;;;;;;5051951;28;20175;-65
2023/02/02 11:13:05;;;;;;;48.33;44.65;;;;;;;;;;5051711;28;20025;-66
2023/02/02 11:15:31;;;;;;;47.92;44.28;;;;;;;;;;5051764;28;20370;-64
2023/02/02 11:18:13;;;;;;;48.92;45.05;;;;;;;;;;5050866;28;20022;-66
2023/02/02 11:20:39;;;;;;;46.35;42.95;;;;;;;;;;5062840;28;20035;-65
2023/02/02 11:23:08;;;;;;;48.75;44.63;;;;;;;;;;5069516;28;20435;-65
2023/02/02 11:25:36;;;;;;;47.17;43.47;;;;;;;;;;5072748;28;20369;-65
2023/02/02 11:28:10;;;;;;;47.70;43.97;;;;;;;;;;5073807;28;20028;-66
2023/02/02 11:30:37;;;;;;;47.80;43.67;;;;;;;;;;5075200;28;20054;-65
2023/02/02 11:33:32;;;;;;;47.38;43.67;;;;;;;;;;5074647;28;20039;-64
2023/02/02 11:36:01;;;;;;;47.47;43.70;;;;;;;;;;5064935;28;20052;-66
2023/02/02 11:38:27;;;;;;;47.45;43.75;;;;;;;;;;5073601;28;20025;-65
2023/02/02 11:41:01;;;;;;;48.10;44.15;;;;;;;;;;5073695;28;20063;-66
2023/02/02 11:43:30;;;;;;;46.78;43.30;;;;;;;;;;5075161;28;20025;-64
2023/02/02 11:46:02;;;;;;;46.70;42.80;;;;;;;;;;5058225;28;20048;-66
2023/02/02 11:48:30;;;;;;;45.38;41.78;;;;;;;;;;5054567;28;20055;-67
2023/02/02 11:50:56;;;;;;;;;;;;;;;;;;5054529;28;20028;-66
2023/02/02 11:53:28;;;;;;;44.25;40.78;;;;;;;;;;5056204;28;19905;-65
2023/02/02 11:55:55;;;;;;;44.78;41.30;;;;;;;;;;5053924;28;20135;-66
2023/02/02 11:58:26;;;;;;;44.08;40.53;;;;;;;;;;5055153;28;20075;-66
2023/02/02 12:01:00;;;;;;;43.75;40.28;;;;;;;;;;5053840;28;20037;-65
2023/02/02 12:03:30;;;;;;;44.22;40.83;;;;;;;;;;5054849;28;20033;-66
2023/02/02 12:05:57;;;;;;;43.75;40.28;;;;;;;;;;5054861;28;20021;-66
2023/02/02 12:08:23;;;;;;;42.60;39.30;;;;;;;;;;5065059;28;20058;-67
2023/02/02 12:10:55;;;;;;;43.25;39.63;;;;;;;;;;5074845;28;20103;-65
2023/02/02 12:13:47;;;;;;;42.85;39.50;;;;;;;;;;5074838;28;20259;-67
2023/02/02 12:16:21;;;;;;;44.53;40.63;;;;;;;;;;5071953;28;20037;-66
2023/02/02 12:18:51;;;;;;;43.72;39.97;;;;;;;;;;5074368;28;20035;-66
2023/02/02 12:21:34;;;;;;;44.92;41.28;;;;;;;;;;5074795;28;20085;-66
2023/02/02 12:24:09;;;;;;;43.70;40.10;;;;;;;;;;5071772;28;20391;-65
2023/02/02 12:26:37;;;;;;;44.35;40.72;;;;;;;;;;5072544;28;20025;-66
2023/02/02 12:29:10;;;;;;;43.85;40.22;;;;;;;;;;5068412;28;20021;-66
2023/02/02 12:31:51;;;;;;;43.17;39.67;;;;;;;;;;5059733;28;20373;-67
2023/02/02 12:34:17;;;;;;;43.67;39.80;;;;;;;;;;5072281;28;20526;-66
2023/02/02 12:36:49;;;;;;;45.05;40.85;;;;;;;;;;5072592;28;20028;-66
2023/02/02 12:39:25;;;;;;;42.72;39.38;;;;;;;;;;5073535;28;20366;-67
2023/02/02 12:42:06;;;;;;;43.90;40.40;;;;;;;;;;5098985;22;20040;-63
2023/02/02 12:44:40;;;;;;;44.55;40.92;;;;;;;;;;5091811;28;20100;-63
2023/02/02 12:47:09;;;;;;;45.22;41.08;;;;;;;;;;5091450;28;20035;-60
2023/02/02 12:49:35;;;;;;;47.53;43.67;;;;;;;;;;5092847;28;20028;-59
2023/02/02 12:52:04;;;;;;;50.28;46.10;;;;;;;;;;5092683;28;20384;-60
2023/02/02 12:54:43;;;;;;;48.97;44.58;;;;;;;;;;5092489;28;20027;-61
2023/02/02 12:57:21;;;;;;;48.95;44.42;;;;;;;;;;5092996;28;20038;-64
2023/02/02 12:59:47;;;;;;;48.40;44.45;;;;;;;;;;5092441;28;20017;-60
2023/02/02 13:02:13;;;;;;;48.53;44.28;;;;;;;;;;5092497;28;20095;-60
2023/02/02 13:04:52;;;;;;;47.40;43.40;;;;;;;;;;5092057;28;20032;-62
2023/02/02 13:07:37;;;;;;;46.80;42.80;;;;;;;;;;5090636;28;20411;-61
2023/02/02 13:10:21;;;;;;;47.72;43.72;;;;;;;;;;5071955;28;20033;-64
2023/02/02 13:12:51;;;;;;;48.03;43.78;;;;;;;;;;5072058;28;20129;-60
2023/02/02 13:15:19;;;;;;;48.00;43.90;;;;;;;;;;5072380;28;20029;-61
2023/02/02 13:17:45;;;;;;;49.40;45.33;;;;;;;;;;5053985;28;20038;-60
2023/02/02 13:20:22;;;;;;;45.67;42.17;;;;;;;;;;5071458;28;20074;-62
2023/02/02 13:22:51;;;;;;;45.50;41.78;;;;;;;;;;5054130;28;20017;-64
2023/02/02 13:25:26;;;;;;;45.55;41.85;;;;;;;;;;5053782;28;20109;-62
2023/02/02 13:27:53;;;;;;;44.15;40.75;;;;;;;;;;5071806;28;20025;-61
2023/02/02 13:30:28;;;;;;;43.42;40.03;;;;;;;;;;5071572;28;20107;-60
2023/02/02 13:32:57;;;;;;;45.33;41.83;;;;;;;;;;5071090;28;20029;-63
2023/02/02 13:35:23;;;;;;;44.03;40.53;;;;;;;;;;5070977;28;20493;-59
2023/02/02 13:37:56;;;;;;;43.78;40.28;;;;;;;;;;5071822;28;20036;-63
2023/02/02 13:40:38;;;;;;;44.03;40.60;;;;;;;;;;5071360;28;20017;-59
2023/02/02 13:43:07;;;;;;;42.72;39.17;;;;;;;;;;5053353;28;20058;-61
2023/02/02 13:45:52;;;;;;;42.65;39.10;;;;;;;;;;5052826;28;20039;-58
2023/02/02 13:48:32;;;;;;;44.90;41.45;;;;;;;;;;5052687;28;20040;-61
2023/02/02 13:51:04;;;;;;;44.15;40.47;;;;;;;;;;5070601;28;20166;-59
2023/02/02 13:53:49;;;;;;;44.13;40.78;;;;;;;;;;5070159;28;20025;-61
2023/02/02 13:56:16;;;;;;;43.42;40.13;;;;;;;;;;5070904;28;20419;-59
2023/02/02 13:58:42;;;;;;;43.35;39.95;;;;;;;;;;5070353;28;20024;-62
2023/02/02 14:01:10;;;;;;;45.20;41.83;;;;;;;;;;5052541;28;20032;-61
2023/02/02 14:03:43;;;;;;;45.42;42.00;;;;;;;;;;5052564;28;20047;-60
2023/02/02 14:06:15;;;;;;;45.00;41.70;;;;;;;;;;5053135;28;20028;-61
2023/02/02 14:08:50;;;;;;;44.72;41.22;;;;;;;;;;5071033;28;20035;-62
2023/02/02 14:11:25;;;;;;;44.33;41.00;;;;;;;;;;5052669;28;20029;-61
2023/02/02 14:16:38;;;;;;;45.83;42.33;;;;;;;;;;5071933;28;20452;-60
2023/02/02 14:19:17;;;;;;;45.55;41.75;;;;;;;;;;5076283;28;20028;-63
2023/02/02 14:21:43;;;;;;;47.47;43.55;;;;;;;;;;5075935;28;20020;-58
2023/02/02 14:24:28;;;;;;;47.38;43.40;;;;;;;;;;5076287;28;20031;-61
2023/02/02 14:26:57;;;;;;;48.35;44.33;;;;;;;;;;5072145;28;20055;-62
2023/02/02 14:29:38;;;;;;;45.20;41.70;;;;;;;;;;5071114;28;20028;-57
2023/02/02 14:32:23;;;;;;;46.67;42.78;;;;;;;;;;5071240;28;20025;-58
2023/02/02 14:34:50;;;;;;;45.22;41.53;;;;;;;;;;5070545;28;20029;-62
2023/02/02 14:37:22;;;;;;;45.40;41.60;;;;;;;;;;5070473;28;20028;-61
2023/02/02 14:39:56;;;;;;;45.38;41.70;;;;;;;;;;5070718;28;20048;-61
2023/02/02 14:45:22;;;;;;;47.55;43.78;;;;;;;;;;5071075;28;20427;-60